sensor_id;sensor_type;location;lat;lon;timestamp;pressure;altitude;pressure_sealevel;temperature;humidity
51468;BME280;37545;45.302;-122.946;2024-02-21T00:00:51;100332.41;;;13.17;100.00
51468;BME280;37545;45.302;-122.946;2024-02-21T00:03:28;100329.78;;;13.16;100.00
51468;BME280;37545;45.302;-122.946;2024-02-21T00:05:57;100335.72;;;13.07;98.36
51468;BME280;37545;45.302;-122.946;2024-02-21T00:08:26;100321.72;;;12.96;97.97
51468;BME280;37545;45.302;-122.946;2024-02-21T00:10:55;100321.66;;;12.88;98.16
51468;BME280;37545;45.302;-122.946;2024-02-21T00:13:37;100321.50;;;12.77;98.98
51468;BME280;37545;45.302;-122.946;2024-02-21T00:16:06;100319.66;;;12.70;100.00
51468;BME280;37545;45.302;-122.946;2024-02-21T00:18:40;100317.06;;;12.70;100.00
51468;BME280;37545;45.302;-122.946;2024-02-21T00:21:10;100315.34;;;12.71;100.00
51468;BME280;37545;45.302;-122.946;2024-02-21T00:23:44;100310.97;;;12.68;100.00
51468;BME280;37545;45.302;-122.946;2024-02-21T00:26:14;100304.91;;;12.66;100.00
51468;BME280;37545;45.302;-122.946;2024-02-21T00:28:55;100304.88;;;12.63;100.00
51468;BME280;37545;45.302;-122.946;2024-02-21T00:31:24;100298.72;;;12.56;100.00
51468;BME280;37545;45.302;-122.946;2024-02-21T00:33:52;100288.31;;;12.53;100.00
51468;BME280;37545;45.302;-122.946;2024-02-21T00:36:26;100288.25;;;12.49;100.00
51468;BME280;37545;45.302;-122.946;2024-02-21T00:38:56;100281.25;;;12.45;100.00
51468;BME280;37545;45.302;-122.946;2024-02-21T00:41:25;100277.75;;;12.43;100.00
51468;BME280;37545;45.302;-122.946;2024-02-21T00:43:56;100269.88;;;12.36;100.00
51468;BME280;37545;45.302;-122.946;2024-02-21T00:46:32;100277.63;;;12.33;100.00
51468;BME280;37545;45.302;-122.946;2024-02-21T00:49:02;100273.25;;;12.28;100.00
51468;BME280;37545;45.302;-122.946;2024-02-21T00:51:31;100276.63;;;12.24;100.00
51468;BME280;37545;45.302;-122.946;2024-02-21T00:54:03;100282.66;;;12.21;100.00
51468;BME280;37545;45.302;-122.946;2024-02-21T00:56:36;100279.09;;;12.16;100.00
51468;BME280;37545;45.302;-122.946;2024-02-21T00:59:07;100263.53;;;12.16;100.00
51468;BME280;37545;45.302;-122.946;2024-02-21T01:01:36;100269.53;;;12.12;100.00
51468;BME280;37545;45.302;-122.946;2024-02-21T01:04:08;100269.50;;;12.10;100.00
51468;BME280;37545;45.302;-122.946;2024-02-21T01:06:42;100280.72;;;12.09;100.00
51468;BME280;37545;45.302;-122.946;2024-02-21T01:09:11;100279.84;;;12.09;100.00
51468;BME280;37545;45.302;-122.946;2024-02-21T01:11:40;100260.75;;;12.04;100.00
51468;BME280;37545;45.302;-122.946;2024-02-21T01:14:18;100270.25;;;12.03;99.21
51468;BME280;37545;45.302;-122.946;2024-02-21T01:16:47;100299.53;;;11.98;100.00
51468;BME280;37545;45.302;-122.946;2024-02-21T01:19:15;100291.59;;;11.88;100.00
51468;BME280;37545;45.302;-122.946;2024-02-21T01:21:44;100224.13;;;11.85;100.00
51468;BME280;37545;45.302;-122.946;2024-02-21T01:24:15;100232.78;;;11.86;100.00
51468;BME280;37545;45.302;-122.946;2024-02-21T01:26:44;100230.25;;;11.87;100.00
51468;BME280;37545;45.302;-122.946;2024-02-21T01:29:15;100266.22;;;11.69;100.00
51468;BME280;37545;45.302;-122.946;2024-02-21T01:31:43;100268.72;;;11.64;100.00
51468;BME280;37545;45.302;-122.946;2024-02-21T01:34:12;100272.97;;;11.61;100.00
51468;BME280;37545;45.302;-122.946;2024-02-21T01:36:42;100282.53;;;11.65;100.00
51468;BME280;37545;45.302;-122.946;2024-02-21T01:39:10;100315.41;;;11.67;100.00
51468;BME280;37545;45.302;-122.946;2024-02-21T01:41:40;100347.44;;;11.71;100.00
51468;BME280;37545;45.302;-122.946;2024-02-21T01:44:09;100388.09;;;11.73;100.00
51468;BME280;37545;45.302;-122.946;2024-02-21T01:51:51;100402.97;;;11.82;100.00
51468;BME280;37545;45.302;-122.946;2024-02-21T01:54:26;100397.97;;;11.91;100.00
51468;BME280;37545;45.302;-122.946;2024-02-21T01:56:56;100397.97;;;11.91;100.00
51468;BME280;37545;45.302;-122.946;2024-02-21T01:59:29;100377.94;;;11.86;100.00
51468;BME280;37545;45.302;-122.946;2024-02-21T02:02:08;100356.41;;;11.88;100.00
51468;BME280;37545;45.302;-122.946;2024-02-21T02:04:38;100341.78;;;11.90;100.00
51468;BME280;37545;45.302;-122.946;2024-02-21T02:07:15;100368.41;;;11.83;100.00
51468;BME280;37545;45.302;-122.946;2024-02-21T02:09:52;100357.81;;;11.72;100.00
51468;BME280;37545;45.302;-122.946;2024-02-21T02:12:24;100328.28;;;11.63;100.00
51468;BME280;37545;45.302;-122.946;2024-02-21T02:15:09;100351.56;;;11.60;100.00
51468;BME280;37545;45.302;-122.946;2024-02-21T02:17:38;100342.84;;;11.55;100.00
51468;BME280;37545;45.302;-122.946;2024-02-21T02:20:07;100344.44;;;11.49;100.00
51468;BME280;37545;45.302;-122.946;2024-02-21T03:00:02;100315.69;;;11.36;100.00
51468;BME280;37545;45.302;-122.946;2024-02-21T03:02:33;100310.50;;;11.36;100.00
51468;BME280;37545;45.302;-122.946;2024-02-21T03:05:12;100312.19;;;11.33;100.00
51468;BME280;37545;45.302;-122.946;2024-02-21T03:07:42;100308.59;;;11.27;100.00
51468;BME280;37545;45.302;-122.946;2024-02-21T03:10:12;100306.81;;;11.24;100.00
51468;BME280;37545;45.302;-122.946;2024-02-21T03:12:44;100292.16;;;11.23;100.00
51468;BME280;37545;45.302;-122.946;2024-02-21T03:15:23;100282.59;;;11.21;100.00
51468;BME280;37545;45.302;-122.946;2024-02-21T03:17:55;100272.28;;;11.24;100.00
51468;BME280;37545;45.302;-122.946;2024-02-21T03:20:24;100272.25;;;11.22;100.00
51468;BME280;37545;45.302;-122.946;2024-02-21T03:23:01;100272.25;;;11.22;100.00
51468;BME280;37545;45.302;-122.946;2024-02-21T03:25:30;100274.84;;;11.22;100.00
51468;BME280;37545;45.302;-122.946;2024-02-21T03:27:59;100267.88;;;11.18;100.00
51468;BME280;37545;45.302;-122.946;2024-02-21T03:30:36;100278.34;;;11.23;100.00
51468;BME280;37545;45.302;-122.946;2024-02-21T03:33:05;100281.78;;;11.23;100.00
51468;BME280;37545;45.302;-122.946;2024-02-21T03:35:34;100303.38;;;11.24;100.00
51468;BME280;37545;45.302;-122.946;2024-02-21T03:38:05;100305.06;;;11.22;100.00
51468;BME280;37545;45.302;-122.946;2024-02-21T03:40:36;100291.16;;;11.17;100.00
51468;BME280;37545;45.302;-122.946;2024-02-21T03:43:09;100301.56;;;11.18;100.00
51468;BME280;37545;45.302;-122.946;2024-02-21T03:45:40;100317.03;;;11.17;100.00
51468;BME280;37545;45.302;-122.946;2024-02-21T03:48:09;100320.41;;;11.13;100.00
51468;BME280;37545;45.302;-122.946;2024-02-21T03:50:44;100340.25;;;11.12;100.00
51468;BME280;37545;45.302;-122.946;2024-02-21T03:53:14;100354.16;;;11.16;100.00
51468;BME280;37545;45.302;-122.946;2024-02-21T03:55:43;100377.47;;;11.17;100.00
51468;BME280;37545;45.302;-122.946;2024-02-21T03:58:12;100393.06;;;11.19;100.00
51468;BME280;37545;45.302;-122.946;2024-02-21T04:00:48;100419.75;;;11.16;100.00
51468;BME280;37545;45.302;-122.946;2024-02-21T04:03:18;100417.13;;;11.15;100.00
51468;BME280;37545;45.302;-122.946;2024-02-21T04:05:49;100404.28;;;11.19;100.00
51468;BME280;37545;45.302;-122.946;2024-02-21T04:08:22;100405.09;;;11.17;100.00
51468;BME280;37545;45.302;-122.946;2024-02-21T04:10:54;100425.75;;;11.14;100.00
51468;BME280;37545;45.302;-122.946;2024-02-21T04:13:23;100427.50;;;11.15;100.00
51468;BME280;37545;45.302;-122.946;2024-02-21T04:15:54;100422.25;;;11.11;100.00
51468;BME280;37545;45.302;-122.946;2024-02-21T04:18:26;100419.63;;;11.10;100.00
51468;BME280;37545;45.302;-122.946;2024-02-21T04:20:55;100417.00;;;11.08;100.00
51468;BME280;37545;45.302;-122.946;2024-02-21T04:23:24;100429.09;;;11.09;100.00
51468;BME280;37545;45.302;-122.946;2024-02-21T04:25:55;100436.81;;;11.06;100.00
51468;BME280;37545;45.302;-122.946;2024-02-21T04:28:28;100434.09;;;11.00;100.00
51468;BME280;37545;45.302;-122.946;2024-02-21T04:31:00;100429.63;;;10.95;100.00
51468;BME280;37545;45.302;-122.946;2024-02-21T04:33:44;100445.97;;;10.92;100.00
51468;BME280;37545;45.302;-122.946;2024-02-21T04:36:20;100439.97;;;10.95;100.00
51468;BME280;37545;45.302;-122.946;2024-02-21T04:38:50;100431.44;;;10.97;100.00
51468;BME280;37545;45.302;-122.946;2024-02-21T04:41:22;100427.09;;;10.96;100.00
51468;BME280;37545;45.302;-122.946;2024-02-21T04:43:56;100422.59;;;10.89;100.00
51468;BME280;37545;45.302;-122.946;2024-02-21T04:46:29;100426.00;;;10.88;100.00
51468;BME280;37545;45.302;-122.946;2024-02-21T04:48:58;100431.19;;;10.86;100.00
51468;BME280;37545;45.302;-122.946;2024-02-21T04:51:32;100432.00;;;10.84;100.00
51468;BME280;37545;45.302;-122.946;2024-02-21T04:54:01;100437.16;;;10.84;100.00
51468;BME280;37545;45.302;-122.946;2024-02-21T04:56:30;100435.38;;;10.81;100.00
51468;BME280;37545;45.302;-122.946;2024-02-21T04:58:58;100430.16;;;10.80;100.00
51468;BME280;37545;45.302;-122.946;2024-02-21T05:01:31;100428.41;;;10.79;100.00
51468;BME280;37545;45.302;-122.946;2024-02-21T05:04:00;100425.84;;;10.80;100.00
51468;BME280;37545;45.302;-122.946;2024-02-21T05:06:30;100428.41;;;10.79;100.00
51468;BME280;37545;45.302;-122.946;2024-02-21T05:08:59;100432.59;;;10.74;100.00
51468;BME280;37545;45.302;-122.946;2024-02-21T05:11:30;100431.78;;;10.76;100.00
51468;BME280;37545;45.302;-122.946;2024-02-21T05:14:01;100430.97;;;10.77;100.00
51468;BME280;37545;45.302;-122.946;2024-02-21T05:16:32;100428.41;;;10.79;100.00
51468;BME280;37545;45.302;-122.946;2024-02-21T05:19:01;100439.53;;;10.75;100.00
51468;BME280;37545;45.302;-122.946;2024-02-21T05:21:30;100434.38;;;10.75;100.00
51468;BME280;37545;45.302;-122.946;2024-02-21T05:23:59;100436.94;;;10.75;100.00
51468;BME280;37545;45.302;-122.946;2024-02-21T05:26:28;100433.50;;;10.76;100.00
51468;BME280;37545;45.302;-122.946;2024-02-21T05:28:57;100438.69;;;10.76;100.00
51468;BME280;37545;45.302;-122.946;2024-02-21T05:31:27;100444.78;;;10.78;100.00
51468;BME280;37545;45.302;-122.946;2024-02-21T05:34:12;100438.75;;;10.79;100.00
51468;BME280;37545;45.302;-122.946;2024-02-21T05:36:41;100437.94;;;10.80;100.00
51468;BME280;37545;45.302;-122.946;2024-02-21T05:39:09;100441.28;;;10.76;100.00
51468;BME280;37545;45.302;-122.946;2024-02-21T05:41:40;100432.50;;;10.69;100.00
51468;BME280;37545;45.302;-122.946;2024-02-21T05:44:09;100436.72;;;10.65;100.00
51468;BME280;37545;45.302;-122.946;2024-02-21T05:46:38;100438.31;;;10.60;100.00
51468;BME280;37545;45.302;-122.946;2024-02-21T05:49:07;100425.94;;;10.47;100.00
51468;BME280;37545;45.302;-122.946;2024-02-21T05:51:37;100426.81;;;10.47;100.00
51468;BME280;37545;45.302;-122.946;2024-02-21T05:54:07;100428.53;;;10.48;100.00
51468;BME280;37545;45.302;-122.946;2024-02-21T05:56:36;100415.50;;;10.44;100.00
51468;BME280;37545;45.302;-122.946;2024-02-21T05:59:05;100424.34;;;10.52;100.00
51468;BME280;37545;45.302;-122.946;2024-02-21T06:01:33;100422.66;;;10.54;100.00
51468;BME280;37545;45.302;-122.946;2024-02-21T06:04:06;100414.91;;;10.56;100.00
51468;BME280;37545;45.302;-122.946;2024-02-21T06:06:36;100417.56;;;10.57;100.00
51468;BME280;37545;45.302;-122.946;2024-02-21T06:09:05;100411.50;;;10.57;100.00
51468;BME280;37545;45.302;-122.946;2024-02-21T06:11:34;100418.34;;;10.55;100.00
51468;BME280;37545;45.302;-122.946;2024-02-21T06:14:04;100410.53;;;10.53;100.00
51468;BME280;37545;45.302;-122.946;2024-02-21T06:16:33;100414.91;;;10.54;100.00
51468;BME280;37545;45.302;-122.946;2024-02-21T06:19:01;100427.84;;;10.54;100.00
51468;BME280;37545;45.302;-122.946;2024-02-21T06:21:30;100429.50;;;10.52;100.00
51468;BME280;37545;45.302;-122.946;2024-02-21T06:24:01;100414.63;;;10.43;100.00
51468;BME280;37545;45.302;-122.946;2024-02-21T06:26:29;100424.41;;;10.55;100.00
51468;BME280;37545;45.302;-122.946;2024-02-21T06:28:58;100427.91;;;10.57;100.00
51468;BME280;37545;45.302;-122.946;2024-02-21T06:31:28;100423.63;;;10.59;100.00
51468;BME280;37545;45.302;-122.946;2024-02-21T06:33:57;100422.72;;;10.57;100.00
51468;BME280;37545;45.302;-122.946;2024-02-21T06:36:26;100429.66;;;10.58;100.00
51468;BME280;37545;45.302;-122.946;2024-02-21T06:38:58;100424.50;;;10.58;100.00
51468;BME280;37545;45.302;-122.946;2024-02-21T06:41:28;100426.22;;;10.59;100.00
51468;BME280;37545;45.302;-122.946;2024-02-21T06:43:59;100426.22;;;10.59;100.00
51468;BME280;37545;45.302;-122.946;2024-02-21T06:46:27;100426.22;;;10.59;100.00
51468;BME280;37545;45.302;-122.946;2024-02-21T06:48:58;100426.22;;;10.59;100.00
51468;BME280;37545;45.302;-122.946;2024-02-21T06:51:29;100417.59;;;10.60;100.00
51468;BME280;37545;45.302;-122.946;2024-02-21T06:53:58;100424.56;;;10.61;100.00
51468;BME280;37545;45.302;-122.946;2024-02-21T06:56:29;100421.97;;;10.61;100.00
51468;BME280;37545;45.302;-122.946;2024-02-21T06:58:59;100421.09;;;10.61;100.00
51468;BME280;37545;45.302;-122.946;2024-02-21T07:01:30;100419.31;;;10.58;100.00
51468;BME280;37545;45.302;-122.946;2024-02-21T07:03:59;100409.84;;;10.59;100.00
51468;BME280;37545;45.302;-122.946;2024-02-21T07:06:28;100406.41;;;10.60;100.00
51468;BME280;37545;45.302;-122.946;2024-02-21T07:09:02;100409.84;;;10.60;100.00
51468;BME280;37545;45.302;-122.946;2024-02-21T07:11:33;100400.34;;;10.59;100.00
51468;BME280;37545;45.302;-122.946;2024-02-21T07:14:01;100400.34;;;10.59;100.00
51468;BME280;37545;45.302;-122.946;2024-02-21T07:16:30;100401.22;;;10.60;100.00
51468;BME280;37545;45.302;-122.946;2024-02-21T07:18:59;100390.84;;;10.58;100.00
51468;BME280;37545;45.302;-122.946;2024-02-21T07:21:28;100401.22;;;10.60;100.00
51468;BME280;37545;45.302;-122.946;2024-02-21T07:23:57;100398.63;;;10.60;100.00
51468;BME280;37545;45.302;-122.946;2024-02-21T07:26:26;100396.03;;;10.60;100.00
51468;BME280;37545;45.302;-122.946;2024-02-21T07:28:57;100403.78;;;10.58;100.00
51468;BME280;37545;45.302;-122.946;2024-02-21T07:31:25;100401.97;;;10.54;100.00
51468;BME280;37545;45.302;-122.946;2024-02-21T07:33:56;100410.53;;;10.53;100.00
51468;BME280;37545;45.302;-122.946;2024-02-21T07:36:28;100411.34;;;10.51;100.00
51468;BME280;37545;45.302;-122.946;2024-02-21T07:38:57;100416.47;;;10.47;100.00
51468;BME280;37545;45.302;-122.946;2024-02-21T07:41:29;100413.75;;;10.43;100.00
51468;BME280;37545;45.302;-122.946;2024-02-21T07:44:02;100417.09;;;10.39;100.00
51468;BME280;37545;45.302;-122.946;2024-02-21T07:46:31;100410.16;;;10.36;100.00
51468;BME280;37545;45.302;-122.946;2024-02-21T07:49:01;100416.03;;;10.31;100.00
51468;BME280;37545;45.302;-122.946;2024-02-21T07:51:32;100411.69;;;10.30;100.00
51468;BME280;37545;45.302;-122.946;2024-02-21T07:54:02;100416.00;;;10.29;100.00
51468;BME280;37545;45.302;-122.946;2024-02-21T07:56:32;100417.00;;;10.34;100.00
51468;BME280;37545;45.302;-122.946;2024-02-21T07:59:02;100421.31;;;10.35;100.00
51468;BME280;37545;45.302;-122.946;2024-02-21T08:01:31;100418.78;;;10.37;100.00
51468;BME280;37545;45.302;-122.946;2024-02-21T08:04:01;100415.44;;;10.41;100.00
51468;BME280;37545;45.302;-122.946;2024-02-21T08:06:31;100416.41;;;10.46;100.00
51468;BME280;37545;45.302;-122.946;2024-02-21T08:09:00;100409.53;;;10.46;100.00
51468;BME280;37545;45.302;-122.946;2024-02-21T08:11:29;100410.41;;;10.47;100.00
51468;BME280;37545;45.302;-122.946;2024-02-21T08:14:01;100415.59;;;10.47;100.00
51468;BME280;37545;45.302;-122.946;2024-02-21T08:16:30;100419.84;;;10.45;100.00
51468;BME280;37545;45.302;-122.946;2024-02-21T08:18:59;100414.56;;;10.42;100.00
51468;BME280;37545;45.302;-122.946;2024-02-21T08:21:29;100408.59;;;10.43;100.00
51468;BME280;37545;45.302;-122.946;2024-02-21T08:23:58;100412.00;;;10.42;100.00
51468;BME280;37545;45.302;-122.946;2024-02-21T08:26:27;100416.25;;;10.40;100.00
51468;BME280;37545;45.302;-122.946;2024-02-21T08:28:57;100408.44;;;10.37;100.00
51468;BME280;37545;45.302;-122.946;2024-02-21T08:31:28;100399.63;;;10.29;100.00
51468;BME280;37545;45.302;-122.946;2024-02-21T08:33:59;100404.84;;;10.32;100.00
51468;BME280;37545;45.302;-122.946;2024-02-21T08:36:30;100412.47;;;10.27;100.00
51468;BME280;37545;45.302;-122.946;2024-02-21T08:38:59;100407.25;;;10.25;100.00
51468;BME280;37545;45.302;-122.946;2024-02-21T08:41:31;100401.25;;;10.26;100.00
51468;BME280;37545;45.302;-122.946;2024-02-21T08:44:00;100405.50;;;10.24;100.00
51468;BME280;37545;45.302;-122.946;2024-02-21T08:46:35;100407.25;;;10.25;100.00
51468;BME280;37545;45.302;-122.946;2024-02-21T08:49:06;100410.69;;;10.26;100.00
51468;BME280;37545;45.302;-122.946;2024-02-21T08:51:35;100407.22;;;10.24;100.00
51468;BME280;37545;45.302;-122.946;2024-02-21T08:54:04;100411.50;;;10.23;100.00
51468;BME280;37545;45.302;-122.946;2024-02-21T08:56:34;100405.41;;;10.21;100.00
51468;BME280;37545;45.302;-122.946;2024-02-21T08:59:03;100414.94;;;10.22;100.00
51468;BME280;37545;45.302;-122.946;2024-02-21T09:01:32;100399.44;;;10.22;100.00
51468;BME280;37545;45.302;-122.946;2024-02-21T09:04:02;100402.84;;;10.21;100.00
51468;BME280;37545;45.302;-122.946;2024-02-21T09:06:33;100400.06;;;10.14;100.00
51468;BME280;37545;45.302;-122.946;2024-02-21T09:09:03;100399.25;;;10.15;100.00
51468;BME280;37545;45.302;-122.946;2024-02-21T09:11:34;100397.44;;;10.12;100.00
51468;BME280;37545;45.302;-122.946;2024-02-21T09:14:03;100393.09;;;10.11;100.00
51468;BME280;37545;45.302;-122.946;2024-02-21T09:16:32;100385.22;;;10.06;100.00
51468;BME280;37545;45.302;-122.946;2024-02-21T09:19:03;100392.94;;;10.05;100.00
51468;BME280;37545;45.302;-122.946;2024-02-21T09:21:32;100392.00;;;10.01;100.00
51468;BME280;37545;45.302;-122.946;2024-02-21T09:24:00;100392.81;;;10.00;100.00
51468;BME280;37545;45.302;-122.946;2024-02-21T09:26:29;100386.63;;;9.94;100.00
51468;BME280;37545;45.302;-122.946;2024-02-21T09:29:00;100387.41;;;9.91;100.00
51468;BME280;37545;45.302;-122.946;2024-02-21T09:31:30;100386.47;;;9.88;100.00
51468;BME280;37545;45.302;-122.946;2024-02-21T09:33:59;100388.16;;;9.85;100.00
51468;BME280;37545;45.302;-122.946;2024-02-21T09:36:29;100388.88;;;9.81;100.00
51468;BME280;37545;45.302;-122.946;2024-02-21T09:38:58;100386.06;;;9.72;100.00
51468;BME280;37545;45.302;-122.946;2024-02-21T09:41:29;100388.72;;;9.75;100.00
51468;BME280;37545;45.302;-122.946;2024-02-21T09:43:58;100386.13;;;9.75;100.00
51468;BME280;37545;45.302;-122.946;2024-02-21T09:46:43;100386.97;;;9.74;100.00
51468;BME280;37545;45.302;-122.946;2024-02-21T09:49:21;100386.06;;;9.72;100.00
51468;BME280;37545;45.302;-122.946;2024-02-21T09:51:55;100380.97;;;9.75;100.00
51468;BME280;37545;45.302;-122.946;2024-02-21T09:54:33;100393.13;;;9.79;100.00
51468;BME280;37545;45.302;-122.946;2024-02-21T09:57:03;100382.84;;;9.81;100.00
51468;BME280;37545;45.302;-122.946;2024-02-21T09:59:35;100383.66;;;9.80;100.00
51468;BME280;37545;45.302;-122.946;2024-02-21T10:02:06;100388.03;;;9.82;100.00
51468;BME280;37545;45.302;-122.946;2024-02-21T10:04:35;100386.38;;;9.84;100.00
51468;BME280;37545;45.302;-122.946;2024-02-21T10:07:05;100387.28;;;9.86;100.00
51468;BME280;37545;45.302;-122.946;2024-02-21T10:09:34;100392.47;;;9.86;100.00
51468;BME280;37545;45.302;-122.946;2024-02-21T10:12:09;100390.72;;;9.85;100.00
51468;BME280;37545;45.302;-122.946;2024-02-21T10:14:38;100386.50;;;9.89;100.00
51468;BME280;37545;45.302;-122.946;2024-02-21T10:17:08;100395.22;;;9.93;100.00
51468;BME280;37545;45.302;-122.946;2024-02-21T10:19:37;100390.13;;;9.96;100.00
51468;BME280;37545;45.302;-122.946;2024-02-21T10:22:17;100398.00;;;10.00;100.00
51468;BME280;37545;45.302;-122.946;2024-02-21T10:24:47;100394.59;;;10.03;100.00
51468;BME280;37545;45.302;-122.946;2024-02-21T10:27:16;100393.00;;;10.06;100.00
51468;BME280;37545;45.302;-122.946;2024-02-21T10:29:49;100394.72;;;10.07;100.00
51468;BME280;37545;45.302;-122.946;2024-02-21T10:32:19;100396.59;;;10.13;100.00
51468;BME280;37545;45.302;-122.946;2024-02-21T10:34:49;100396.69;;;10.16;100.00
51468;BME280;37545;45.302;-122.946;2024-02-21T10:37:21;100391.56;;;10.18;100.00
51468;BME280;37545;45.302;-122.946;2024-02-21T10:39:51;100391.63;;;10.21;100.00
51468;BME280;37545;45.302;-122.946;2024-02-21T10:42:22;100391.66;;;10.22;100.00
51468;BME280;37545;45.302;-122.946;2024-02-21T10:44:51;100383.84;;;10.19;100.00
51468;BME280;37545;45.302;-122.946;2024-02-21T10:47:22;100399.34;;;10.19;100.00
51468;BME280;37545;45.302;-122.946;2024-02-21T10:49:59;100394.03;;;10.13;100.00
51468;BME280;37545;45.302;-122.946;2024-02-21T10:52:40;100402.53;;;10.09;100.00
51468;BME280;37545;45.302;-122.946;2024-02-21T10:55:19;100398.03;;;10.02;100.00
51468;BME280;37545;45.302;-122.946;2024-02-21T10:57:50;100398.03;;;10.02;100.00
51468;BME280;37545;45.302;-122.946;2024-02-21T11:00:20;100397.19;;;10.03;100.00
51468;BME280;37545;45.302;-122.946;2024-02-21T11:02:56;100397.19;;;10.03;100.00
51468;BME280;37545;45.302;-122.946;2024-02-21T11:05:26;100403.25;;;10.03;100.00
51468;BME280;37545;45.302;-122.946;2024-02-21T11:07:57;100402.34;;;10.01;100.00
51468;BME280;37545;45.302;-122.946;2024-02-21T11:10:27;100396.28;;;10.01;100.00
51468;BME280;37545;45.302;-122.946;2024-02-21T11:13:06;100405.72;;;9.99;100.00
51468;BME280;37545;45.302;-122.946;2024-02-21T11:15:35;100404.81;;;9.98;100.00
51468;BME280;37545;45.302;-122.946;2024-02-21T11:18:07;100399.53;;;9.94;100.00
51468;BME280;37545;45.302;-122.946;2024-02-21T11:20:50;100405.63;;;9.96;100.00
51468;BME280;37545;45.302;-122.946;2024-02-21T11:23:27;100398.72;;;9.95;100.00
51468;BME280;37545;45.302;-122.946;2024-02-21T11:26:05;100405.63;;;9.96;100.00
51468;BME280;37545;45.302;-122.946;2024-02-21T11:28:34;100404.72;;;9.94;100.00
51468;BME280;37545;45.302;-122.946;2024-02-21T11:31:12;100404.72;;;9.94;100.00
51468;BME280;37545;45.302;-122.946;2024-02-21T11:33:42;100397.69;;;9.88;100.00
51468;BME280;37545;45.302;-122.946;2024-02-21T11:36:22;100404.44;;;9.83;100.00
51468;BME280;37545;45.302;-122.946;2024-02-21T11:39:03;100401.81;;;9.81;100.00
51468;BME280;37545;45.302;-122.946;2024-02-21T11:41:32;100403.47;;;9.79;100.00
51468;BME280;37545;45.302;-122.946;2024-02-21T11:44:01;100396.63;;;9.81;100.00
51468;BME280;37545;45.302;-122.946;2024-02-21T11:46:34;100399.16;;;9.80;100.00
51468;BME280;37545;45.302;-122.946;2024-02-21T11:49:03;100396.63;;;9.81;100.00
51468;BME280;37545;45.302;-122.946;2024-02-21T11:51:31;100399.28;;;9.83;100.00
51468;BME280;37545;45.302;-122.946;2024-02-21T11:54:02;100397.50;;;9.82;100.00
51468;BME280;37545;45.302;-122.946;2024-02-21T11:56:31;100399.22;;;9.81;100.00
51468;BME280;37545;45.302;-122.946;2024-02-21T11:59:02;100398.31;;;9.79;100.00
51468;BME280;37545;45.302;-122.946;2024-02-21T12:01:33;100403.47;;;9.79;100.00
51468;BME280;37545;45.302;-122.946;2024-02-21T12:04:02;100406.13;;;9.82;100.00
51468;BME280;37545;45.302;-122.946;2024-02-21T12:06:33;100406.06;;;9.79;100.00
51468;BME280;37545;45.302;-122.946;2024-02-21T12:09:08;100408.56;;;9.76;100.00
51468;BME280;37545;45.302;-122.946;2024-02-21T12:11:37;100405.97;;;9.76;100.00
51468;BME280;37545;45.302;-122.946;2024-02-21T12:14:06;100411.22;;;9.79;100.00
51468;BME280;37545;45.302;-122.946;2024-02-21T12:16:36;100406.97;;;9.81;100.00
51468;BME280;37545;45.302;-122.946;2024-02-21T12:19:11;100406.00;;;9.78;100.00
51468;BME280;37545;45.302;-122.946;2024-02-21T12:21:40;100415.69;;;9.85;100.00
51468;BME280;37545;45.302;-122.946;2024-02-21T12:24:21;100412.94;;;9.79;100.00
51468;BME280;37545;45.302;-122.946;2024-02-21T12:26:50;100422.56;;;9.84;100.00
51468;BME280;37545;45.302;-122.946;2024-02-21T12:29:19;100413.00;;;9.82;100.00
51468;BME280;37545;45.302;-122.946;2024-02-21T12:31:47;100419.16;;;9.85;100.00
51468;BME280;37545;45.302;-122.946;2024-02-21T12:34:16;100416.47;;;9.82;100.00
51468;BME280;37545;45.302;-122.946;2024-02-21T12:36:45;100414.59;;;9.77;100.00
51468;BME280;37545;45.302;-122.946;2024-02-21T12:39:16;100422.56;;;9.84;100.00
51468;BME280;37545;45.302;-122.946;2024-02-21T12:41:45;100413.97;;;9.85;100.00
51468;BME280;37545;45.302;-122.946;2024-02-21T12:44:13;100420.81;;;9.83;100.00
51468;BME280;37545;45.302;-122.946;2024-02-21T12:46:43;100413.00;;;9.80;100.00
51468;BME280;37545;45.302;-122.946;2024-02-21T12:49:16;100412.09;;;9.80;100.00
51468;BME280;37545;45.302;-122.946;2024-02-21T12:51:45;100418.19;;;9.82;100.00
51468;BME280;37545;45.302;-122.946;2024-02-21T12:54:16;100416.34;;;9.78;100.00
51468;BME280;37545;45.302;-122.946;2024-02-21T12:56:46;100418.97;;;9.79;100.00
51468;BME280;37545;45.302;-122.946;2024-02-21T12:59:18;100419.84;;;9.80;100.00
51468;BME280;37545;45.302;-122.946;2024-02-21T13:01:47;100418.91;;;9.76;100.00
51468;BME280;37545;45.302;-122.946;2024-02-21T13:04:16;100418.03;;;9.76;100.00
51468;BME280;37545;45.302;-122.946;2024-02-21T13:06:50;100422.22;;;9.72;100.00
51468;BME280;37545;45.302;-122.946;2024-02-21T13:09:20;100429.91;;;9.69;100.00
51468;BME280;37545;45.302;-122.946;2024-02-21T13:11:49;100429.78;;;9.66;100.00
51468;BME280;37545;45.302;-122.946;2024-02-21T13:14:18;100430.66;;;9.65;100.00